Iguazu, Argentina
Current Conditions -  °F | °C
As of 6:35 AM on Thursday 27 Nov 2014 (Local Time) from SBFI Reporting Station
Haze Haze  
Wind Chill: 72°   Ceiling: Unl
Heat Index: 72°   Visibility: 1.2mi
Dew Point: 70°   Wind: 2mph
Humidity: 94%   Direction: 140°SE
Pressure: 29.85"   Gusts: NA
Location:  25.58°S, 54.57°W
Report Text: SBFI 270935Z 14002KT 2000 BR NSC 22/21 Q1011
Loading
Personal Weather Stations






























Interactive Weather Map New forecast layout! Learn more

10-Day Weather Forecast

Advertisements
Track Severe Weather on mobile